Terminal Aerodrome Forecast
Issued by NWS Birmingham, AL

Home | Current Version | Previous Version | Text Only | Print | Product List | Glossary On
Versions: 1 2 3 4 5 6 7 8 9 10 11 12 13 14 15 16 17
000
FTUS44 KBMX 281900 AAA
TAFBHM
TAF AMD
KBHM 281923Z 2819/2918 32003KT P6SM OVC011
     FM290300 35006KT 4SM -RA BR OVC007
     FM291000 34003KT 4SM BR OVC004=

USA.gov is the U.S. government's official web portal to all federal, state and local government web resources and services.